ADDS METAR Data INFO
IDs: Format: Raw Decoded Include TAF

Data at: 1152 UTC 21 Jun 2018

KTVL 211053Z AUTO 00000KT 10SM CLR 08/M01 A3021 RMK AO2 SLP172 T00781006
KTVL 210953Z AUTO 00000KT 10SM CLR 11/M01 A3021 RMK AO2 SLP167 T01061006
KTVL 210853Z AUTO 00000KT 10SM CLR 12/01 A3021 RMK AO2 SLP167 T01170006 53002
KTVL 210753Z AUTO 00000KT 10SM CLR 15/02 A3020 RMK AO2 SLP159 T01500017 402720044
KTVL 210653Z AUTO 00000KT 10SM CLR 13/03 A3021 RMK AO2 SLP168 T01330033
KTVL 210553Z AUTO VRB03KT 10SM CLR 17/04 A3020 RMK AO2 SLP165 T01670044 10256 20156 53005
KTVL 210453Z AUTO VRB05KT 10SM CLR 17/07 A3020 RMK AO2 SLP162 T01720067
KTVL 210353Z AUTO 18008KT 10SM CLR 19/08 A3018 RMK AO2 SLP159 T01890078
KTVL 210253Z AUTO 21006KT 10SM CLR 21/04 A3019 RMK AO2 SLP167 T02060039 56002
KTVL 210153Z AUTO 21007G18KT 180V250 10SM CLR 22/03 A3019 RMK AO2 SLP174 T02220028
KTVL 210053Z AUTO 19014G20KT 10SM CLR 24/02 A3018 RMK AO2 SLP172 T02440017
KTVL 202353Z AUTO 20012G19KT 10SM CLR 25/M01 A3019 RMK AO2 SLP172 T02501006 10272 20206 58005
KTVL 202253Z AUTO 20015G21KT 10SM CLR 26/M02 A3020 RMK AO2 SLP172 T02611017
KTVL 202153Z AUTO 19015G23KT 10SM CLR 27/M05 A3020 RMK AO2 SLP170 T02671050
KTVL 202053Z AUTO 20010G27KT 10SM CLR 26/M02 A3021 RMK AO2 PK WND 18027/2044 SLP172 T02561017 53001
KTVL 201953Z AUTO 20010G16KT 10SM CLR 26/M01 A3021 RMK AO2 SLP169 T02611006
KTVL 201853Z AUTO 05006KT 10SM CLR 23/08 A3021 RMK AO2 SLP174 T02280078
KTVL 201753Z AUTO 02009KT 10SM CLR 21/08 A3021 RMK AO2 SLP173 T02110083 10228 20044 58005
KTVL 201653Z AUTO VRB05KT 10SM CLR 20/09 A3021 RMK AO2 SLP174 T02000089
KTVL 201553Z AUTO 06004KT 10SM CLR 17/09 A3022 RMK AO2 SLP178 T01720089
KTVL 201453Z AUTO 00000KT 10SM CLR 12/07 A3022 RMK AO2 SLP186 T01170072 51001
KTVL 201353Z AUTO 17003KT 10SM CLR 06/05 A3022 RMK AO2 SLP190 T00610050
KTVL 201253Z AUTO 19003KT 10SM CLR 04/03 A3022 RMK AO2 SLP189 T00440033
KTVL 201153Z AUTO 20003KT 10SM CLR 06/04 A3022 RMK AO2 SLP184 T00560044 10117 20056 56005
KTVL 201053Z AUTO 00000KT 10SM CLR 06/05 A3022 RMK AO2 SLP185 T00610050
KTVL 200953Z AUTO 00000KT 10SM CLR 07/06 A3023 RMK AO2 SLP187 T00720061
KTVL 200853Z AUTO 18003KT 10SM CLR 08/07 A3024 RMK AO2 SLP191 T00830067 58004
KTVL 200753Z AUTO 21003KT 10SM CLR 09/07 A3024 RMK AO2 SLP193 T00940072 402330022
KTVL 200653Z AUTO 19004KT 10SM CLR 11/08 A3025 RMK AO2 SLP194 T01060078
KTVL 200553Z AUTO 00000KT 10SM CLR 12/08 A3025 RMK AO2 SLP195 T01170078 10228 20117 51005
KTVL 200453Z AUTO 00000KT 10SM CLR 13/09 A3025 RMK AO2 SLP192 T01330089
KTVL 200353Z AUTO 00000KT 10SM CLR 16/08 A3024 RMK AO2 SLP189 T01560083
KTVL 200253Z AUTO 00000KT 10SM CLR 17/08 A3023 RMK AO2 SLP191 T01670078 53004
KTVL 200153Z AUTO 02006KT 10SM CLR 20/05 A3022 RMK AO2 SLP190 T02000050
KTVL 200053Z AUTO 05009KT 10SM CLR 22/04 A3021 RMK AO2 SLP189 T02220044
KTVL 192353Z AUTO 05006KT 10SM CLR 23/04 A3022 RMK AO2 SLP189 T02280044 10233 20178 56004